Time;durP1;ratioP1;P1;durP2;ratioP2;P2;SDS_P1;SDS_P2;PMS_P1;PMS_P2;Temp;Humidity;BMP_temperature;BMP_pressure;BME280_temperature;BME280_humidity;BME280_pressure;Samples;Min_cycle;Max_cycle;Signal;HPM_P1;HPM_P2
2023/03/26 00:01:04;;;;;;;;;6.33;4.33;;;;;15.05;87.95;100379.84;5077858;28;47558;-76
2023/03/26 00:03:32;;;;;;;;;4.00;4.00;;;;;15.00;88.34;100366.28;5077144;28;45375;-76
2023/03/26 00:06:06;;;;;;;;;6.67;4.00;;;;;14.99;88.63;100368.13;5078040;28;45294;-76
2023/03/26 00:08:33;;;;;;;;;4.00;4.00;;;;;15.06;88.36;100353.91;5079101;27;45528;-77
2023/03/26 00:10:59;;;;;;;;;4.33;3.33;;;;;15.07;88.47;100361.72;5077520;28;47263;-77
2023/03/26 00:13:25;;;;;;;;;5.67;4.00;;;;;14.99;87.55;100343.22;5079185;27;45331;-77
2023/03/26 00:15:51;;;;;;;;;6.67;3.00;;;;;14.98;87.43;100336.22;5079195;28;45319;-76
2023/03/26 00:18:18;;;;;;;;;4.00;3.00;;;;;14.92;87.35;100323.69;5078900;28;45325;-76
2023/03/26 00:20:44;;;;;;;;;6.00;4.00;;;;;14.98;87.42;100336.22;5077309;28;47329;-76
2023/03/26 00:23:09;;;;;;;;;4.00;3.00;;;;;14.96;87.40;100339.13;5079110;27;45338;-76
2023/03/26 00:25:40;;;;;;;;;5.00;3.67;;;;;14.91;89.26;100324.75;5078695;28;45914;-77
2023/03/26 00:28:06;;;;;;;;;3.67;3.00;;;;;14.95;89.87;100333.97;5070615;27;45402;-77
2023/03/26 00:30:32;;;;;;;;;2.33;2.33;;;;;14.91;92.24;100338.13;5063912;28;45242;-77
2023/03/26 00:32:57;;;;;;;;;2.67;2.33;;;;;14.78;91.34;100310.38;5077540;28;45452;-77
2023/03/26 00:35:23;;;;;;;;;3.67;3.67;;;;;14.77;92.06;100311.41;5077151;28;45340;-76
2023/03/26 00:37:50;;;;;;;;;1.33;1.33;;;;;14.71;93.70;100305.06;5079173;28;45357;-76
2023/03/26 00:40:15;;;;;;;;;1.00;1.00;;;;;14.67;93.01;100298.50;5078376;27;45524;-76
2023/03/26 00:42:41;;;;;;;;;2.00;2.00;;;;;14.60;93.44;100297.66;5077321;28;46036;-76
2023/03/26 00:45:07;;;;;;;;;3.00;3.00;;;;;14.59;94.19;100298.72;5078961;28;45476;-76
2023/03/26 00:47:33;;;;;;;;;1.67;1.67;;;;;14.56;95.09;100288.44;5078440;27;45332;-76
2023/03/26 00:49:58;;;;;;;;;1.67;1.67;;;;;14.57;95.63;100288.22;5078483;27;45397;-76
2023/03/26 00:52:23;;;;;;;;;2.00;2.00;;;;;14.50;96.54;100282.09;5078364;28;45324;-76
2023/03/26 00:54:52;;;;;;;;;2.00;2.00;;;;;14.38;99.51;100277.41;5078580;27;45345;-77
2023/03/26 00:57:21;;;;;;;;;3.33;3.33;;;;;14.25;100.00;100261.41;5078582;27;45595;-77
2023/03/26 00:59:50;;;;;;;;;3.00;2.00;;;;;14.32;100.00;100269.41;5080487;27;46074;-77
2023/03/26 01:02:19;;;;;;;;;3.00;2.00;;;;;14.21;100.00;100249.47;5080830;28;45878;-77
2023/03/26 01:04:56;;;;;;;;;2.67;2.00;;;;;14.14;100.00;100230.81;5081389;27;45284;-77
2023/03/26 01:07:27;;;;;;;;;2.00;2.00;;;;;14.12;100.00;100235.53;5080363;28;46398;-77
2023/03/26 01:09:55;;;;;;;;;2.33;2.33;;;;;14.03;100.00;100229.59;5081617;27;45230;-77
2023/03/26 01:12:23;;;;;;;;;1.00;1.00;;;;;13.96;100.00;100218.13;5082112;27;45598;-77
2023/03/26 01:14:51;;;;;;;;;3.00;3.00;;;;;13.94;100.00;100225.50;5080434;28;45410;-78
2023/03/26 01:17:17;;;;;;;;;2.67;2.00;;;;;13.80;100.00;100198.03;5080445;28;47168;-78
2023/03/26 01:19:48;;;;;;;;;1.00;1.00;;;;;13.85;100.00;100216.91;5080090;27;47068;-78
2023/03/26 01:22:19;;;;;;;;;1.00;1.00;;;;;13.54;100.00;100167.66;5081475;28;45353;-78
2023/03/26 01:24:51;;;;;;;;;3.00;2.00;;;;;13.63;100.00;100177.09;5080485;27;45300;-78
2023/03/26 01:27:26;;;;;;;;;2.00;1.00;;;;;13.60;100.00;100180.19;5081334;27;45237;-78
2023/03/26 01:29:55;;;;;;;;;1.33;1.33;;;;;13.61;100.00;100177.31;5071810;27;45281;-78
2023/03/26 01:32:42;;;;;;;;;1.00;1.00;;;;;13.58;100.00;100169.72;5063546;28;45468;-78
2023/03/26 01:35:39;;;;;;;;;1.00;1.00;;;;;13.56;100.00;100165.63;5081734;27;45395;-78
2023/03/26 01:38:12;;;;;;;;;2.00;2.00;;;;;13.53;100.00;100161.50;5080144;28;46357;-77
2023/03/26 01:41:08;;;;;;;;;4.00;2.67;;;;;13.52;100.00;100153.72;5081177;28;45526;-78
2023/03/26 01:44:08;;;;;;;;;2.00;2.00;;;;;13.52;100.00;100143.06;5080985;28;45269;-77
2023/03/26 01:46:36;;;;;;;;;2.67;2.33;;;;;13.47;100.00;100133.75;5080884;28;45472;-77
2023/03/26 01:49:03;;;;;;;;;1.00;1.00;;;;;13.48;100.00;100126.59;5063643;28;46270;-77
2023/03/26 01:51:40;;;;;;;;;3.00;1.00;;;;;13.46;100.00;100124.13;5075473;28;46232;-77
2023/03/26 01:54:11;;;;;;;;;2.00;1.33;;;;;13.30;100.00;100085.34;5072887;28;45340;-77
2023/03/26 01:57:00;;;;;;;;;2.67;2.67;;;;;13.45;100.00;100101.13;5083603;27;45393;-77
2023/03/26 01:59:37;;;;;;;;;2.00;1.00;;;;;13.42;100.00;100072.19;5084745;27;45400;-77
2023/03/26 02:02:29;;;;;;;;;2.33;2.33;;;;;13.42;100.00;100064.19;5083590;27;45255;-77
2023/03/26 02:05:07;;;;;;;;;2.67;2.00;;;;;13.32;100.00;100043.25;5086173;27;45492;-78
2023/03/26 02:07:51;;;;;;;;;3.67;2.00;;;;;13.35;100.00;100026.81;5083335;27;45306;-77
2023/03/26 02:10:25;;;;;;;;;1.00;1.00;;;;;13.15;100.00;99997.53;5083070;28;45528;-77
2023/03/26 02:12:51;;;;;;;;;2.33;2.00;;;;;13.30;100.00;100021.31;5083338;27;46275;-77
2023/03/26 02:15:16;;;;;;;;;2.00;1.67;;;;;13.24;100.00;99998.13;5084442;27;45269;-77
2023/03/26 02:17:42;;;;;;;;;2.33;2.33;;;;;13.27;100.00;99997.72;5081475;28;45256;-77
2023/03/26 02:20:10;;;;;;;;;3.00;2.00;;;;;13.25;100.00;99989.91;5084115;27;45287;-77
2023/03/26 02:22:40;;;;;;;;;2.00;2.00;;;;;13.29;100.00;99990.31;5081297;28;46312;-77
2023/03/26 02:25:12;;;;;;;;;2.00;1.33;;;;;13.24;100.00;99966.94;5063414;28;46418;-77
2023/03/26 02:27:38;;;;;;;;;2.00;2.00;;;;;13.28;100.00;99945.16;5081120;28;45434;-78
2023/03/26 02:30:05;;;;;;;;;3.00;1.00;;;;;13.41;100.00;99969.09;5082354;27;45512;-78
2023/03/26 02:32:31;;;;;;;;;1.33;1.33;;;;;13.33;100.00;99932.81;5084111;27;46543;-77
2023/03/26 02:34:56;;;;;;;;;1.33;1.33;;;;;13.49;100.00;99952.91;5081903;28;45307;-77
2023/03/26 02:37:21;;;;;;;;;3.00;3.00;;;;;13.49;100.00;99944.88;5082192;27;45161;-77
2023/03/26 02:39:47;;;;;;;;;4.33;4.33;;;;;13.45;100.00;99924.97;5079864;28;47113;-77
2023/03/26 02:42:12;;;;;;;;;1.67;1.67;;;;;13.28;100.00;99889.94;5080123;27;46085;-77
2023/03/26 02:44:39;;;;;;;;;1.00;1.00;;;;;13.36;100.00;99903.03;5083535;28;45162;-78
2023/03/26 02:47:04;;;;;;;;;6.00;3.67;;;;;13.22;100.00;99882.78;5084269;28;45299;-77
2023/03/26 02:49:30;;;;;;;;;1.33;1.33;;;;;13.15;100.00;99860.66;5081925;27;45173;-77
2023/03/26 02:51:55;;;;;;;;;2.00;2.00;;;;;13.25;100.00;99872.50;5080594;27;45427;-77
2023/03/26 02:54:22;;;;;;;;;1.33;1.33;;;;;13.17;100.00;99843.41;5080385;28;45501;-78
2023/03/26 02:56:47;;;;;;;;;2.00;2.00;;;;;13.00;100.00;99845.75;5081531;27;45459;-78
2023/03/26 02:59:13;;;;;;;;;1.33;1.33;;;;;12.95;100.00;99822.38;5080143;28;45350;-77
2023/03/26 03:01:41;;;;;;;;;2.00;2.00;;;;;13.10;100.00;99827.44;5079719;28;46220;-77
2023/03/26 03:04:10;;;;;;;;;3.00;2.00;;;;;13.09;100.00;99820.47;5078544;28;45319;-77
2023/03/26 03:06:39;;;;;;;;;2.00;2.00;;;;;13.12;100.00;99821.88;5080666;27;45277;-78
2023/03/26 03:09:07;;;;;;;;;3.33;1.33;;;;;12.97;100.00;99800.84;5080669;27;45544;-77
2023/03/26 03:11:33;;;;;;;;;3.00;3.00;;;;;13.00;100.00;99795.06;5081674;27;45317;-77
2023/03/26 03:13:59;;;;;;;;;2.00;2.00;;;;;13.07;100.00;99817.19;5079448;28;45558;-78
2023/03/26 03:16:25;;;;;;;;;4.00;2.33;;;;;13.13;100.00;99800.34;5081968;27;45531;-77
2023/03/26 03:18:55;;;;;;;;;1.00;1.00;;;;;13.10;100.00;99786.59;5079940;28;45431;-78
2023/03/26 03:21:23;;;;;;;;;2.00;2.00;;;;;13.09;100.00;99780.47;5082649;28;47661;-78
2023/03/26 03:23:49;;;;;;;;;2.00;2.00;;;;;13.00;100.00;99755.88;5084431;27;45378;-78
2023/03/26 03:26:20;;;;;;;;;3.00;2.00;;;;;13.08;100.00;99768.13;5085352;27;45277;-78
2023/03/26 03:28:46;;;;;;;;;2.33;1.33;;;;;13.09;100.00;99772.47;5083894;27;45320;-78
2023/03/26 03:31:11;;;;;;;;;5.00;3.67;;;;;12.86;100.00;99727.66;5084683;28;45434;-77
2023/03/26 03:33:37;;;;;;;;;3.00;1.67;;;;;12.95;100.00;99730.88;5086872;27;45376;-78
2023/03/26 03:36:09;;;;;;;;;2.00;2.00;;;;;13.04;100.00;99753.59;5087109;27;45531;-78
2023/03/26 03:38:35;;;;;;;;;3.00;3.00;;;;;12.87;100.00;99726.63;5085396;28;45425;-78
2023/03/26 03:41:00;;;;;;;;;2.00;2.00;;;;;12.93;100.00;99728.41;5085802;27;45351;-78
2023/03/26 03:43:26;;;;;;;;;1.00;1.00;;;;;13.00;100.00;99709.72;5082189;28;45346;-77
2023/03/26 03:45:51;;;;;;;;;4.33;3.00;;;;;13.08;100.00;99727.31;5082886;27;45303;-77
2023/03/26 03:48:17;;;;;;;;;1.67;1.67;;;;;13.07;100.00;99718.50;5080958;28;45258;-77
2023/03/26 03:50:43;;;;;;;;;2.00;2.00;;;;;13.19;100.00;99717.78;5083075;27;45490;-77
2023/03/26 03:53:08;;;;;;;;;1.00;1.00;;;;;13.05;100.00;99714.41;5065792;27;45244;-77
2023/03/26 03:55:37;;;;;;;;;3.00;3.00;;;;;13.17;100.00;99750.00;5071699;28;45260;-78
2023/03/26 03:58:02;;;;;;;;;2.00;1.00;;;;;13.21;100.00;99735.22;5080714;28;45362;-78
2023/03/26 04:00:29;;;;;;;;;3.00;3.00;;;;;13.20;100.00;99741.59;5082450;28;46151;-77
2023/03/26 04:02:55;;;;;;;;;2.33;1.67;;;;;13.04;100.00;99712.75;5084800;28;45321;-77
2023/03/26 04:05:20;;;;;;;;;4.33;3.00;;;;;13.04;100.00;99710.09;5073247;28;45486;-77
2023/03/26 04:07:46;;;;;;;;;1.00;1.00;;;;;13.03;100.00;99719.13;5078195;28;45454;-77
2023/03/26 04:10:14;;;;;;;;;2.00;2.00;;;;;13.25;100.00;99763.13;5084737;28;48632;-77
2023/03/26 04:12:39;;;;;;;;;0.00;0.00;;;;;13.16;100.00;99742.22;5085724;27;45349;-77
2023/03/26 04:15:05;;;;;;;;;1.00;1.00;;;;;13.03;100.00;99738.63;5086164;28;45327;-77
2023/03/26 04:17:30;;;;;;;;;1.00;1.00;;;;;13.05;100.00;99741.88;5083914;27;45286;-77
2023/03/26 04:19:56;;;;;;;;;1.00;1.00;;;;;13.17;100.00;99754.56;5078426;27;45348;-77
2023/03/26 04:22:22;;;;;;;;;0.67;0.67;;;;;12.94;100.00;99732.75;5064435;28;45445;-78
2023/03/26 04:24:48;;;;;;;;;2.00;0.67;;;;;12.92;100.00;99740.13;5072597;28;45383;-77
2023/03/26 04:27:17;;;;;;;;;6.00;1.00;;;;;12.81;100.00;99706.97;5070255;27;45391;-78
2023/03/26 04:29:47;;;;;;;;;0.00;0.00;;;;;13.11;100.00;99770.38;5068395;28;46155;-78
2023/03/26 04:32:23;;;;;;;;;1.67;1.00;;;;;13.11;100.00;99769.56;5075822;28;45483;-77
2023/03/26 04:34:49;;;;;;;;;0.00;0.00;;;;;13.02;100.00;99758.31;5084619;27;45418;-78
2023/03/26 04:37:20;;;;;;;;;1.00;1.00;;;;;13.07;100.00;99765.69;5085156;28;45690;-77
2023/03/26 04:39:46;;;;;;;;;1.00;1.00;;;;;12.94;100.00;99737.25;5087284;27;46569;-77
2023/03/26 04:42:11;;;;;;;;;0.67;0.67;;;;;13.09;100.00;99755.63;5086724;28;45536;-77
2023/03/26 04:44:36;;;;;;;;;2.67;2.00;;;;;13.12;100.00;99769.38;5088520;27;45369;-77
2023/03/26 04:47:02;;;;;;;;;1.00;0.00;;;;;13.13;100.00;99741.66;5087248;28;45471;-77
2023/03/26 04:49:27;;;;;;;;;3.00;1.00;;;;;13.02;100.00;99744.19;5087659;28;45457;-78
2023/03/26 04:51:52;;;;;;;;;1.00;1.00;;;;;13.05;100.00;99746.44;5086652;27;45323;-77
2023/03/26 04:54:23;;;;;;;;;0.00;0.00;;;;;13.11;100.00;99753.56;5087878;27;45383;-79
2023/03/26 04:57:01;;;;;;;;;0.00;0.00;;;;;13.08;100.00;99754.00;5073798;28;45331;-77
2023/03/26 04:59:33;;;;;;;;;0.00;0.00;;;;;13.10;100.00;99762.59;5087781;28;46159;-77
2023/03/26 05:02:00;;;;;;;;;2.00;1.00;;;;;13.12;100.00;99773.88;5083965;28;46603;-77
2023/03/26 05:04:28;;;;;;;;;0.00;0.00;;;;;13.08;100.00;99776.13;5085943;27;45306;-77
2023/03/26 05:06:55;;;;;;;;;1.33;0.00;;;;;12.98;100.00;99760.63;5085718;27;45355;-77
2023/03/26 05:09:21;;;;;;;;;0.00;0.00;;;;;13.03;100.00;99764.47;5088394;27;46137;-78
2023/03/26 05:11:47;;;;;;;;;0.00;0.00;;;;;13.12;100.00;99784.53;5087421;27;45228;-78
2023/03/26 05:14:12;;;;;;;;;0.00;0.00;;;;;13.02;100.00;99763.66;5085665;27;45283;-78
2023/03/26 05:16:38;;;;;;;;;0.00;0.00;;;;;13.08;100.00;99773.47;5085390;27;45307;-78
2023/03/26 05:19:04;;;;;;;;;0.00;0.00;;;;;12.92;100.00;99755.31;5085628;28;47199;-79
2023/03/26 05:21:29;;;;;;;;;1.00;0.00;;;;;13.08;100.00;99780.69;5090016;28;45225;-79
2023/03/26 05:23:55;;;;;;;;;0.67;0.00;;;;;13.12;100.00;99782.69;5089568;27;45462;-77
2023/03/26 05:26:20;;;;;;;;;0.00;0.00;;;;;13.09;100.00;99782.31;5088093;28;45283;-77
2023/03/26 05:28:45;;;;;;;;;1.67;0.00;;;;;13.08;100.00;99783.34;5087660;28;46275;-76
2023/03/26 05:31:11;;;;;;;;;0.00;0.00;;;;;12.89;100.00;99764.56;5074142;27;45571;-78
2023/03/26 05:33:37;;;;;;;;;0.00;0.00;;;;;13.11;100.00;99793.59;5074171;27;45301;-78
2023/03/26 05:36:08;;;;;;;;;0.00;0.00;;;;;13.13;100.00;99803.00;5088679;28;45594;-78
2023/03/26 05:38:34;;;;;;;;;1.00;1.00;;;;;12.99;100.00;99783.56;5075012;27;45665;-79
2023/03/26 05:41:02;;;;;;;;;0.00;0.00;;;;;13.01;100.00;99794.03;5087140;28;45441;-79
2023/03/26 05:43:28;;;;;;;;;0.00;0.00;;;;;13.10;100.00;99814.09;5100514;27;45295;-78
2023/03/26 05:45:53;;;;;;;;;0.00;0.00;;;;;12.93;100.00;99795.09;5077706;28;45246;-79
2023/03/26 05:48:20;;;;;;;;;1.00;0.00;;;;;13.06;100.00;99820.06;5088005;28;45986;-78
2023/03/26 05:50:50;;;;;;;;;0.00;0.00;;;;;12.93;100.00;99791.63;5082197;27;45278;-79
2023/03/26 05:53:17;;;;;;;;;0.00;0.00;;;;;12.90;100.00;99789.38;5088774;28;45459;-79
2023/03/26 05:55:44;;;;;;;;;1.00;0.00;;;;;12.79;100.00;99772.19;5090948;27;45354;-79
2023/03/26 05:58:10;;;;;;;;;1.00;1.00;;;;;12.94;100.00;99802.09;5088486;27;45382;-77
2023/03/26 06:00:37;;;;;;;;;0.00;0.00;;;;;12.86;100.00;99804.97;5087558;28;46068;-79
2023/03/26 06:03:03;;;;;;;;;0.00;0.00;;;;;12.69;100.00;99781.47;5090484;28;45275;-78
2023/03/26 06:05:38;;;;;;;;;1.00;1.00;;;;;12.72;100.00;99767.72;5088690;28;45362;-78
2023/03/26 06:08:04;;;;;;;;;0.67;0.33;;;;;12.94;100.00;99806.59;5092662;27;45420;-79
2023/03/26 06:10:29;;;;;;;;;0.00;0.00;;;;;12.65;100.00;99782.94;5092870;27;45363;-78
2023/03/26 06:12:55;;;;;;;;;1.00;1.00;;;;;12.46;100.00;99742.84;5091784;27;45235;-79
2023/03/26 06:15:20;;;;;;;;;0.67;0.00;;;;;12.73;100.00;99806.69;5090713;27;45394;-79
2023/03/26 06:17:46;;;;;;;;;0.00;0.00;;;;;12.54;100.00;99772.94;5090551;28;47467;-79
2023/03/26 06:20:13;;;;;;;;;0.00;0.00;;;;;12.75;100.00;99807.28;5088032;28;45471;-78
2023/03/26 06:22:38;;;;;;;;;2.00;0.00;;;;;12.61;100.00;99765.72;5069787;28;45613;-79
2023/03/26 06:25:05;;;;;;;;;1.00;0.00;;;;;12.68;100.00;99782.50;5070095;28;45383;-78
2023/03/26 06:27:30;;;;;;;;;1.00;1.00;;;;;12.86;100.00;99821.81;5075232;28;45575;-77
2023/03/26 06:29:55;;;;;;;;;1.67;1.00;;;;;12.95;100.00;99830.38;5091578;28;46286;-78
2023/03/26 06:32:21;;;;;;;;;1.33;1.00;;;;;12.94;100.00;99828.75;5091345;28;45677;-79
2023/03/26 06:34:46;;;;;;;;;0.33;0.00;;;;;12.96;100.00;99820.53;5088756;28;45230;-79
2023/03/26 06:37:12;;;;;;;;;0.00;0.00;;;;;12.91;100.00;99839.00;5086979;27;46263;-78
2023/03/26 06:39:37;;;;;;;;;0.00;0.00;;;;;12.77;100.00;99814.25;5083965;27;45279;-78
2023/03/26 06:42:03;;;;;;;;;0.00;0.00;;;;;12.96;100.00;99844.53;5081183;28;45439;-76
2023/03/26 06:44:28;;;;;;;;;1.00;1.00;;;;;12.86;100.00;99826.31;5083049;27;45504;-77
2023/03/26 06:46:53;;;;;;;;;0.33;0.33;;;;;12.85;100.00;99806.03;5083435;28;45621;-76
2023/03/26 06:49:19;;;;;;;;;0.00;0.00;;;;;12.90;100.00;99821.38;5080408;27;45350;-78
2023/03/26 06:51:45;;;;;;;;;1.33;0.00;;;;;13.04;100.00;99832.78;5080439;28;45317;-78
2023/03/26 06:54:10;;;;;;;;;0.33;0.33;;;;;13.08;100.00;99832.16;5080421;27;45326;-78
2023/03/26 06:56:36;;;;;;;;;1.00;0.00;;;;;12.96;100.00;99808.00;5082062;27;45795;-78
2023/03/26 06:59:01;;;;;;;;;0.33;0.33;;;;;13.02;100.00;99810.88;5081292;27;45353;-78
2023/03/26 07:01:26;;;;;;;;;3.33;1.33;;;;;13.15;100.00;99813.47;5079055;28;45298;-78
2023/03/26 07:03:52;;;;;;;;;1.33;0.00;;;;;13.11;100.00;99805.06;5080224;27;45438;-79
2023/03/26 07:06:17;;;;;;;;;1.00;1.00;;;;;13.38;100.00;99839.59;5080726;27;45432;-78
2023/03/26 07:08:42;;;;;;;;;0.00;0.00;;;;;13.32;100.00;99821.75;5079783;27;45789;-78
2023/03/26 07:11:08;;;;;;;;;0.00;0.00;;;;;13.37;100.00;99826.44;5080272;28;45843;-77
2023/03/26 07:13:33;;;;;;;;;2.33;2.00;;;;;13.53;100.00;99835.00;5079785;27;45294;-78
2023/03/26 07:15:58;;;;;;;;;1.00;0.00;;;;;13.76;100.00;99856.63;5080395;28;45385;-78
2023/03/26 07:18:24;;;;;;;;;0.00;0.00;;;;;13.48;100.00;99817.78;5079874;28;45597;-78
2023/03/26 07:20:49;;;;;;;;;1.00;1.00;;;;;13.62;100.00;99842.53;5080533;28;45290;-78
2023/03/26 07:23:18;;;;;;;;;1.00;1.00;;;;;13.69;100.00;99828.31;5079778;28;45324;-76
2023/03/26 07:25:45;;;;;;;;;1.00;0.67;;;;;13.79;100.00;99838.50;5079911;27;45374;-78
2023/03/26 07:28:23;;;;;;;;;1.33;0.00;;;;;13.83;100.00;99839.72;5079790;27;45278;-78
2023/03/26 07:31:15;;;;;;;;;1.00;1.00;;;;;14.07;100.00;99874.66;5073259;28;45402;-78
2023/03/26 07:34:02;;;;;;;;;0.67;0.67;;;;;14.06;100.00;99873.00;5079080;27;45453;-77
2023/03/26 07:36:28;;;;;;;;;1.00;1.00;;;;;14.09;100.00;99876.06;5079673;28;45549;-77
2023/03/26 07:39:05;;;;;;;;;1.33;1.33;;;;;14.11;100.00;99889.22;5063317;27;45414;-79
2023/03/26 07:41:58;;;;;;;;;2.33;1.00;;;;;14.21;100.00;99883.38;5065463;28;45452;-77
2023/03/26 07:44:35;;;;;;;;;2.00;2.00;;;;;14.22;100.00;99887.69;5079402;27;45646;-76
2023/03/26 07:47:08;;;;;;;;;0.00;0.00;;;;;14.30;100.00;99883.94;5079688;27;46121;-75
2023/03/26 07:49:34;;;;;;;;;2.00;2.00;;;;;14.14;100.00;99864.72;5079370;27;45324;-76
2023/03/26 07:52:00;;;;;;;;;1.00;1.00;;;;;14.25;99.84;99884.59;5079564;28;45382;-78
2023/03/26 07:54:25;;;;;;;;;0.00;0.00;;;;;14.16;99.50;99883.22;5077882;28;46253;-76
2023/03/26 07:56:57;;;;;;;;;1.00;1.00;;;;;14.22;99.85;99899.19;5079226;27;46444;-76
2023/03/26 07:59:35;;;;;;;;;2.67;2.67;;;;;14.29;100.00;99887.63;5077912;28;45798;-77
2023/03/26 08:02:00;;;;;;;;;2.00;2.00;;;;;14.34;99.27;99895.81;5079266;27;45445;-76
2023/03/26 08:04:48;;;;;;;;;4.67;2.00;;;;;14.36;100.00;99899.88;5077873;28;47283;-76
2023/03/26 08:07:31;;;;;;;;;2.33;1.33;;;;;14.27;99.97;99883.31;5077978;28;47177;-77
2023/03/26 08:10:07;;;;;;;;;4.00;2.33;;;;;14.41;99.35;99899.22;5081710;27;45283;-76
2023/03/26 08:13:04;;;;;;;;;2.33;2.33;;;;;14.39;98.67;99893.28;5081875;28;45371;-76
2023/03/26 08:15:37;;;;;;;;;2.00;2.00;;;;;14.43;98.97;99888.31;5081789;28;47009;-76
2023/03/26 08:18:30;;;;;;;;;2.67;2.33;;;;;14.55;98.59;99889.22;5082862;27;46045;-76
2023/03/26 08:21:16;;;;;;;;;1.00;1.00;;;;;14.67;98.25;99900.00;5082982;27;45362;-76
2023/03/26 08:24:02;;;;;;;;;4.33;2.67;;;;;14.69;98.37;99913.16;5083128;27;45387;-76
2023/03/26 08:26:33;;;;;;;;;2.00;2.00;;;;;14.58;98.54;99896.78;5081585;28;45971;-76
2023/03/26 08:29:16;;;;;;;;;1.00;1.00;;;;;14.63;97.84;99913.00;5081711;28;47368;-77
2023/03/26 08:31:45;;;;;;;;;2.00;1.67;;;;;14.62;98.72;99913.22;5082321;27;45441;-77
2023/03/26 08:34:11;;;;;;;;;1.67;1.67;;;;;14.64;98.58;99913.81;5082864;27;45413;-76
2023/03/26 08:36:37;;;;;;;;;1.00;1.00;;;;;14.55;98.38;99904.44;5082553;27;45268;-77
2023/03/26 08:39:03;;;;;;;;;3.00;1.00;;;;;14.57;98.44;99910.38;5076114;28;53300;-76
2023/03/26 08:41:41;;;;;;;;;2.00;2.00;;;;;14.55;98.69;99910.63;5075373;28;45228;-76
2023/03/26 08:44:35;;;;;;;;;0.00;0.00;;;;;14.64;98.26;99908.47;5081340;28;45718;-78
2023/03/26 08:47:42;;;;;;;;;4.67;4.67;;;;;14.60;98.57;99915.28;5082458;27;45218;-76
2023/03/26 08:50:17;;;;;;;;;2.00;2.00;;;;;14.68;99.01;99920.34;5081511;28;45543;-77
2023/03/26 08:53:19;;;;;;;;;4.00;2.00;;;;;14.67;97.85;99921.41;5082502;28;45428;-77
2023/03/26 08:56:07;;;;;;;;;4.00;3.00;;;;;14.72;98.71;99926.88;5071914;28;45282;-78
2023/03/26 08:58:56;;;;;;;;;2.67;2.33;;;;;14.77;98.41;99937.75;5063779;28;45293;-77
2023/03/26 09:01:49;;;;;;;;;3.00;2.33;;;;;14.83;98.54;99938.75;5081242;27;45568;-78
2023/03/26 09:04:26;;;;;;;;;4.33;3.00;;;;;14.88;97.74;99925.50;5077811;27;45855;-77
2023/03/26 09:07:05;;;;;;;;;3.67;3.00;;;;;14.84;96.38;99929.66;5075686;27;45465;-76
2023/03/26 09:09:36;;;;;;;;;1.00;1.00;;;;;14.78;96.69;99935.91;5081573;27;45450;-77
2023/03/26 09:12:25;;;;;;;;;5.00;2.00;;;;;14.86;96.13;99937.47;5081547;28;46507;-77
2023/03/26 09:15:09;;;;;;;;;2.00;2.00;;;;;14.97;95.59;99935.94;5081182;27;45614;-78
2023/03/26 09:17:56;;;;;;;;;2.33;2.33;;;;;15.08;94.76;99937.84;5079108;28;45501;-77
2023/03/26 09:20:44;;;;;;;;;3.00;2.33;;;;;15.02;95.54;99941.41;5079252;28;46089;-77
2023/03/26 09:23:27;;;;;;;;;4.33;3.00;;;;;15.11;95.14;99940.06;5090835;27;47452;-78
2023/03/26 09:26:11;;;;;;;;;3.67;2.00;;;;;15.23;95.00;99947.34;5081542;27;45356;-77
2023/03/26 09:29:10;;;;;;;;;1.33;1.33;;;;;15.18;94.00;99936.50;5080791;27;45674;-77
2023/03/26 09:31:57;;;;;;;;;4.00;2.00;;;;;15.22;93.06;99945.72;5079427;28;47368;-77
2023/03/26 09:34:56;;;;;;;;;1.00;1.00;;;;;15.21;92.76;99944.91;5079220;28;47836;-76
2023/03/26 09:37:39;;;;;;;;;2.00;2.00;;;;;15.09;92.09;99946.69;5081272;27;45447;-77
2023/03/26 09:40:19;;;;;;;;;2.00;2.00;;;;;15.16;92.53;99950.13;5081375;27;45224;-76
2023/03/26 09:42:54;;;;;;;;;1.33;1.00;;;;;15.13;92.21;99940.69;5079190;28;45945;-77
2023/03/26 09:45:54;;;;;;;;;2.00;2.00;;;;;15.22;91.29;99951.91;5081187;27;46109;-77
2023/03/26 09:48:44;;;;;;;;;2.67;2.00;;;;;15.34;91.37;99959.16;5081251;27;45301;-76
2023/03/26 09:51:35;;;;;;;;;3.00;2.00;;;;;15.35;91.66;99966.13;5079092;28;45406;-77
2023/03/26 09:54:19;;;;;;;;;2.00;0.67;;;;;15.29;90.35;99962.50;5071457;28;45332;-77
2023/03/26 09:57:22;;;;;;;;;0.33;0.33;;;;;15.35;90.67;99976.84;5076234;28;46322;-77
2023/03/26 10:00:03;;;;;;;;;1.67;1.67;;;;;15.34;89.44;99957.31;5023862;28;45389;-77
2023/03/26 10:02:44;;;;;;;;;1.33;1.33;;;;;15.27;88.99;99962.72;5075392;27;45374;-77
2023/03/26 10:05:20;;;;;;;;;1.00;1.00;;;;;15.34;89.14;99969.88;5069203;28;45432;-76
2023/03/26 10:08:00;;;;;;;;;1.00;0.00;;;;;15.34;88.94;99970.69;5073259;28;46415;-77
2023/03/26 10:10:41;;;;;;;;;2.67;2.00;;;;;15.24;87.19;99971.22;5072593;28;45601;-77
2023/03/26 10:13:09;;;;;;;;;2.00;0.67;;;;;15.27;87.22;99976.13;5079421;27;45444;-76
2023/03/26 10:15:56;;;;;;;;;1.00;1.00;;;;;15.22;85.58;99972.47;5075928;27;45466;-76
2023/03/26 10:18:33;;;;;;;;;1.00;1.00;;;;;15.15;85.83;99978.72;5071773;28;45911;-77
2023/03/26 10:21:24;;;;;;;;;1.00;1.00;;;;;15.13;85.08;99985.34;5076626;28;45836;-77
2023/03/26 10:24:26;;;;;;;;;1.00;1.00;;;;;15.04;85.86;99984.00;5057582;28;45435;-77
2023/03/26 10:27:16;;;;;;;;;0.67;0.67;;;;;14.97;85.93;99995.59;5062856;28;45362;-76
2023/03/26 10:30:05;;;;;;;;;1.00;1.00;;;;;14.91;87.16;99995.66;5070833;28;48673;-77
2023/03/26 10:32:49;;;;;;;;;1.00;1.00;;;;;14.81;86.36;99993.50;5079503;27;45492;-77
2023/03/26 10:36:00;;;;;;;;;2.00;2.00;;;;;14.82;86.59;100006.66;5072396;27;45414;-77
2023/03/26 10:38:44;;;;;;;;;2.00;2.00;;;;;14.86;86.87;100007.84;5060680;27;45468;-79
2023/03/26 10:41:28;;;;;;;;;1.67;0.67;;;;;14.75;86.38;100012.03;5079330;28;47073;-77
2023/03/26 10:44:05;;;;;;;;;1.33;1.00;;;;;14.77;86.36;100009.97;5084485;28;45335;-77
2023/03/26 10:46:33;;;;;;;;;1.00;1.00;;;;;14.78;85.67;100008.13;5081506;27;45406;-78
2023/03/26 10:49:02;;;;;;;;;1.00;1.00;;;;;14.81;86.10;100014.91;5080793;28;45500;-77
2023/03/26 10:51:43;;;;;;;;;1.00;1.00;;;;;14.89;86.53;100020.78;5079324;28;47126;-77
2023/03/26 10:54:25;;;;;;;;;1.00;1.00;;;;;14.84;85.91;99999.22;5080886;27;45256;-76
2023/03/26 10:56:51;;;;;;;;;2.00;2.00;;;;;14.98;85.21;100032.03;5080379;27;45374;-75
2023/03/26 10:59:17;;;;;;;;;1.67;1.00;;;;;14.94;85.46;100025.50;5079357;28;46258;-79
2023/03/26 11:01:58;;;;;;;;;1.00;1.00;;;;;15.04;85.68;100021.47;5080643;27;45501;-80
2023/03/26 11:05:02;;;;;;;;;2.00;1.33;;;;;15.22;85.21;100024.16;5079126;28;45418;-79
2023/03/26 11:07:35;;;;;;;;;1.00;1.00;;;;;15.26;83.76;100020.00;5074996;27;45502;-79
2023/03/26 11:10:28;;;;;;;;;1.00;1.00;;;;;15.59;84.48;100027.88;5080831;28;45321;-77
2023/03/26 11:13:12;;;;;;;;;2.00;0.00;;;;;15.76;83.16;100017.34;5071469;27;45390;-77
2023/03/26 11:16:03;;;;;;;;;2.00;2.00;;;;;16.05;83.31;100017.59;5058340;28;45224;-76
2023/03/26 11:18:46;;;;;;;;;0.00;0.00;;;;;16.34;81.43;100030.38;5060701;28;45466;-78
2023/03/26 11:21:23;;;;;;;;;0.33;0.33;;;;;16.46;80.76;100014.31;5058673;28;47556;-78
2023/03/26 11:23:56;;;;;;;;;0.33;0.33;;;;;16.53;81.08;100023.84;5060364;28;45374;-79
2023/03/26 11:26:54;;;;;;;;;1.67;1.33;;;;;16.53;79.47;100029.22;5059645;28;45264;-78
2023/03/26 11:29:44;;;;;;;;;0.33;0.33;;;;;16.51;79.63;100027.81;5031603;28;45578;-79
2023/03/26 11:32:19;;;;;;;;;1.67;1.00;;;;;16.56;80.28;100032.50;5059758;28;45327;-78
2023/03/26 11:35:01;;;;;;;;;0.33;0.33;;;;;16.72;80.02;100034.50;5058518;28;47970;-79
2023/03/26 11:37:37;;;;;;;;;1.00;0.00;;;;;16.84;77.15;100030.97;5068472;28;45402;-78
2023/03/26 11:40:13;;;;;;;;;0.00;0.00;;;;;16.82;77.60;100035.78;5080383;27;45488;-77
2023/03/26 11:42:40;;;;;;;;;1.00;1.00;;;;;16.82;78.49;100025.06;5078112;28;47359;-78
2023/03/26 11:45:16;;;;;;;;;0.00;0.00;;;;;16.84;76.15;100028.31;5057856;28;48216;-77
2023/03/26 11:47:47;;;;;;;;;0.00;0.00;;;;;16.76;76.80;100018.75;5074232;28;45446;-79
2023/03/26 11:50:22;;;;;;;;;2.67;1.00;;;;;16.81;76.66;100026.91;5078419;28;45535;-79
2023/03/26 11:52:47;;;;;;;;;0.00;0.00;;;;;16.81;78.71;100015.34;5079974;27;45382;-79